createdAt,value
2023-03-10T00:00:40.361Z,16.10
2023-03-10T00:03:08.132Z,13.80
2023-03-10T00:05:37.164Z,17.00
2023-03-10T00:08:04.571Z,17.43
2023-03-10T00:10:31.700Z,17.03
2023-03-10T00:12:58.608Z,16.80
2023-03-10T00:15:25.628Z,17.93
2023-03-10T00:17:55.593Z,16.13
2023-03-10T00:20:23.392Z,16.53
2023-03-10T00:22:50.340Z,16.63
2023-03-10T00:25:17.502Z,16.77
2023-03-10T00:27:44.441Z,17.27
2023-03-10T00:30:11.748Z,15.53
2023-03-10T00:32:38.879Z,14.47
2023-03-10T00:35:07.280Z,16.40
2023-03-10T00:37:38.288Z,13.97
2023-03-10T00:40:11.005Z,14.13
2023-03-10T00:42:37.963Z,15.57
2023-03-10T00:45:05.483Z,17.80
2023-03-10T00:47:32.680Z,17.50
2023-03-10T00:50:00.066Z,16.10
2023-03-10T00:52:32.852Z,14.43
2023-03-10T00:55:00.182Z,14.67
2023-03-10T00:57:27.227Z,15.80
2023-03-10T00:59:54.197Z,16.30
2023-03-10T01:02:22.325Z,16.23
2023-03-10T01:04:49.475Z,15.20
2023-03-10T01:07:16.630Z,14.83
2023-03-10T01:09:43.528Z,12.90
2023-03-10T01:12:10.472Z,13.33
2023-03-10T01:14:37.521Z,13.23
2023-03-10T01:17:05.537Z,12.60
2023-03-10T01:19:32.659Z,11.10
2023-03-10T01:21:59.600Z,9.00
2023-03-10T01:24:26.636Z,9.80
2023-03-10T01:26:53.584Z,9.00
2023-03-10T01:29:20.749Z,7.87
2023-03-10T01:31:47.814Z,8.40
2023-03-10T01:34:14.779Z,9.80
2023-03-10T01:36:42.460Z,9.20
2023-03-10T01:39:09.518Z,10.07
2023-03-10T01:41:41.173Z,8.70
2023-03-10T01:44:17.441Z,9.23
2023-03-10T01:46:51.165Z,9.70
2023-03-10T01:49:36.704Z,9.40
2023-03-10T01:52:25.081Z,10.40
2023-03-10T01:54:57.384Z,11.13
2023-03-10T01:57:30.306Z,11.43
2023-03-10T01:59:58.382Z,11.80
2023-03-10T02:02:26.309Z,9.63
2023-03-10T02:04:55.142Z,9.57
2023-03-10T02:07:29.255Z,9.80
2023-03-10T02:09:56.708Z,9.27
2023-03-10T02:12:23.742Z,8.83
2023-03-10T02:14:53.530Z,8.97
2023-03-10T02:17:23.284Z,8.73
2023-03-10T02:20:27.765Z,7.63
2023-03-10T02:22:54.769Z,6.30
2023-03-10T02:25:45.707Z,6.27
2023-03-10T02:28:12.649Z,6.30
2023-03-10T02:30:51.023Z,6.63
2023-03-10T02:33:27.236Z,6.20
2023-03-10T02:35:54.633Z,6.20
2023-03-10T02:38:21.876Z,6.47
2023-03-10T02:40:55.779Z,6.20
2023-03-10T02:43:32.166Z,5.60
2023-03-10T02:46:03.144Z,6.63
2023-03-10T02:48:35.345Z,6.70
2023-03-10T02:51:13.940Z,6.50
2023-03-10T02:53:41.054Z,6.87
2023-03-10T02:56:08.225Z,6.37
2023-03-10T02:58:35.340Z,7.23
2023-03-10T03:01:04.950Z,8.60
2023-03-10T03:03:32.214Z,8.80
2023-03-10T03:05:59.466Z,7.70
2023-03-10T03:08:26.726Z,7.80
2023-03-10T03:10:53.815Z,6.63
2023-03-10T03:13:20.915Z,7.57
2023-03-10T03:15:48.694Z,6.97
2023-03-10T03:18:15.635Z,7.07
2023-03-10T03:20:42.889Z,8.07
2023-03-10T03:23:10.412Z,6.70
2023-03-10T03:25:40.758Z,8.27
2023-03-10T03:28:10.921Z,6.43
2023-03-10T03:30:38.810Z,6.10
2023-03-10T03:33:07.565Z,6.33
2023-03-10T03:35:36.997Z,6.10
2023-03-10T03:38:05.692Z,5.87
2023-03-10T03:40:35.352Z,6.30
2023-03-10T03:43:03.521Z,5.17
2023-03-10T03:45:32.353Z,5.70
2023-03-10T03:48:00.058Z,5.20
2023-03-10T03:50:27.725Z,6.23
2023-03-10T03:52:54.689Z,6.60
2023-03-10T03:55:21.906Z,6.60
2023-03-10T03:57:49.032Z,7.53
2023-03-10T04:00:21.629Z,5.97
2023-03-10T04:02:48.944Z,7.97
2023-03-10T04:05:16.545Z,6.50
2023-03-10T04:07:44.142Z,6.23
2023-03-10T04:10:14.854Z,6.50
2023-03-10T04:12:41.834Z,6.10
2023-03-10T04:15:09.592Z,6.10
2023-03-10T04:17:36.587Z,6.40
2023-03-10T04:20:07.878Z,6.50
2023-03-10T04:22:36.709Z,6.27
2023-03-10T04:25:06.131Z,5.40
2023-03-10T04:27:33.891Z,5.67
2023-03-10T04:30:00.834Z,4.20
2023-03-10T04:32:27.874Z,5.63
2023-03-10T04:34:54.751Z,4.07
2023-03-10T04:37:21.851Z,4.43
2023-03-10T04:39:48.823Z,4.10
2023-03-10T04:42:15.915Z,3.87
2023-03-10T04:44:42.934Z,4.67
2023-03-10T04:47:09.874Z,3.87
2023-03-10T04:49:38.453Z,4.60
2023-03-10T04:52:05.964Z,3.83
2023-03-10T04:54:33.080Z,3.93
2023-03-10T04:57:00.144Z,3.63
2023-03-10T04:59:27.142Z,3.80
2023-03-10T05:01:54.096Z,3.73
2023-03-10T05:04:21.254Z,3.87
2023-03-10T05:06:54.378Z,3.57
2023-03-10T05:09:21.318Z,3.77
2023-03-10T05:11:48.317Z,3.60
2023-03-10T05:14:15.904Z,3.63
2023-03-10T05:16:43.662Z,3.63
2023-03-10T05:19:10.615Z,4.03
2023-03-10T05:21:37.616Z,3.90
2023-03-10T05:24:04.807Z,4.10
2023-03-10T05:26:34.712Z,3.73
2023-03-10T05:29:02.050Z,4.70
2023-03-10T05:31:29.110Z,4.43
2023-03-10T05:33:56.158Z,5.97
2023-03-10T05:36:23.664Z,4.77
2023-03-10T05:38:51.032Z,5.97
2023-03-10T05:41:17.960Z,6.13
2023-03-10T05:43:44.916Z,5.67
2023-03-10T05:46:12.742Z,5.57
2023-03-10T05:48:39.977Z,6.70
2023-03-10T05:51:10.985Z,5.80
2023-03-10T05:53:39.144Z,6.60
2023-03-10T05:56:18.653Z,4.20
2023-03-10T05:58:47.090Z,4.90
2023-03-10T06:01:14.848Z,4.23
2023-03-10T06:03:42.217Z,4.77
2023-03-10T06:06:09.345Z,6.50
2023-03-10T06:08:36.630Z,5.70
2023-03-10T06:11:05.018Z,7.40
2023-03-10T06:13:32.526Z,7.13
2023-03-10T06:16:05.531Z,7.30
2023-03-10T06:18:33.806Z,7.53
2023-03-10T06:21:08.957Z,7.13
2023-03-10T06:23:36.926Z,6.30
2023-03-10T06:26:09.323Z,5.60
2023-03-10T06:28:39.281Z,5.17
2023-03-10T06:31:13.462Z,5.77
2023-03-10T06:33:40.397Z,6.50
2023-03-10T06:36:10.783Z,5.80
2023-03-10T06:38:38.550Z,6.73
2023-03-10T06:41:06.665Z,5.80
2023-03-10T06:43:34.137Z,6.40
2023-03-10T06:46:05.195Z,6.93
2023-03-10T06:48:32.913Z,8.60
2023-03-10T06:50:59.967Z,7.57
2023-03-10T06:53:27.412Z,6.30
2023-03-10T06:56:06.718Z,6.23
2023-03-10T06:58:35.439Z,5.40
2023-03-10T07:01:02.766Z,5.67
2023-03-10T07:03:30.139Z,5.37
2023-03-10T07:06:00.674Z,10.50
2023-03-10T07:08:29.390Z,14.17
2023-03-10T07:10:57.238Z,11.70
2023-03-10T07:13:24.299Z,6.57
2023-03-10T07:15:51.306Z,21.00
2023-03-10T07:18:18.284Z,17.93
2023-03-10T07:20:46.280Z,9.30
2023-03-10T07:23:13.365Z,5.50
2023-03-10T07:25:40.541Z,5.13
2023-03-10T07:28:08.122Z,5.10
2023-03-10T07:30:36.631Z,4.90
2023-03-10T07:33:04.207Z,5.40
2023-03-10T07:35:31.140Z,8.97
2023-03-10T07:37:58.243Z,4.83
2023-03-10T07:40:25.370Z,4.80
2023-03-10T07:42:54.812Z,5.27
2023-03-10T07:45:26.378Z,5.10
2023-03-10T07:47:54.385Z,4.13
2023-03-10T07:50:21.805Z,4.77
2023-03-10T07:52:49.175Z,4.50
2023-03-10T07:55:17.107Z,8.40
2023-03-10T07:57:44.274Z,5.30
2023-03-10T08:00:12.731Z,7.97
2023-03-10T08:02:40.904Z,7.40
2023-03-10T08:05:10.117Z,10.27
2023-03-10T08:07:38.039Z,5.40
2023-03-10T08:10:06.482Z,5.23
2023-03-10T08:12:34.117Z,4.83
2023-03-10T08:15:01.229Z,4.93
2023-03-10T08:17:33.517Z,5.40
2023-03-10T08:20:01.164Z,4.93
2023-03-10T08:22:28.414Z,5.13
2023-03-10T08:24:56.164Z,6.07
2023-03-10T08:27:23.276Z,7.90
2023-03-10T08:29:50.210Z,10.77
2023-03-10T08:32:17.511Z,6.70
2023-03-10T08:34:44.608Z,5.60
2023-03-10T08:37:12.245Z,5.43
2023-03-10T08:39:39.242Z,5.30
2023-03-10T08:42:06.661Z,5.10
2023-03-10T08:44:33.718Z,4.37
2023-03-10T08:47:00.953Z,5.20
2023-03-10T08:49:28.207Z,5.90
2023-03-10T08:51:55.369Z,12.87
2023-03-10T08:54:25.119Z,13.67
2023-03-10T08:56:52.574Z,8.63
2023-03-10T08:59:20.532Z,5.40
2023-03-10T09:01:47.761Z,8.40
2023-03-10T09:04:14.791Z,5.97
2023-03-10T09:06:41.802Z,4.70
2023-03-10T09:09:10.427Z,5.40
2023-03-10T09:11:40.452Z,5.87
2023-03-10T09:14:09.881Z,5.70
2023-03-10T09:16:39.439Z,5.27
2023-03-10T09:19:06.823Z,5.00
2023-03-10T09:21:34.414Z,5.73
2023-03-10T09:24:02.368Z,6.53
2023-03-10T09:26:29.612Z,7.07
2023-03-10T09:28:57.450Z,5.60
2023-03-10T09:31:34.427Z,4.50
2023-03-10T09:34:01.789Z,5.27
2023-03-10T09:36:29.859Z,4.53
2023-03-10T09:39:00.723Z,5.80
2023-03-10T09:41:49.083Z,7.13
2023-03-10T09:44:31.576Z,4.60
2023-03-10T09:47:10.932Z,5.40
2023-03-10T09:49:40.278Z,5.60
2023-03-10T09:52:39.869Z,13.40
2023-03-10T09:55:20.594Z,37.40
2023-03-10T09:57:54.121Z,11.93
2023-03-10T10:00:35.776Z,7.07
2023-03-10T10:03:33.316Z,6.63
2023-03-10T10:06:03.207Z,7.47
2023-03-10T10:08:44.905Z,7.83
2023-03-10T10:11:16.807Z,7.90
2023-03-10T10:13:46.094Z,7.40
2023-03-10T10:16:37.653Z,7.47
2023-03-10T10:19:17.180Z,6.50
2023-03-10T10:22:19.082Z,6.83
2023-03-10T10:24:59.796Z,6.83
2023-03-10T10:27:26.831Z,6.80
2023-03-10T10:29:53.813Z,6.90
2023-03-10T10:32:20.817Z,6.90
2023-03-10T10:34:49.221Z,6.80
2023-03-10T10:37:39.382Z,5.73
2023-03-10T10:40:27.354Z,5.97
2023-03-10T10:43:00.835Z,6.80
2023-03-10T10:45:38.063Z,6.40
2023-03-10T10:48:06.133Z,22.80
2023-03-10T10:50:35.908Z,15.80
2023-03-10T10:53:22.290Z,9.53
2023-03-10T10:56:03.320Z,7.83
2023-03-10T10:58:40.221Z,6.77
2023-03-10T11:01:14.717Z,7.60
2023-03-10T11:03:48.054Z,8.00
2023-03-10T11:06:32.165Z,7.33
2023-03-10T11:09:12.580Z,8.17
2023-03-10T11:12:08.549Z,8.00
2023-03-10T11:15:22.937Z,8.50
2023-03-10T11:18:11.868Z,9.73
2023-03-10T11:21:07.058Z,16.83
2023-03-10T11:23:59.585Z,27.17
2023-03-10T11:27:20.482Z,35.93
2023-03-10T11:30:00.567Z,22.40
2023-03-10T11:32:39.538Z,17.33
2023-03-10T11:35:51.771Z,12.70
2023-03-10T11:38:34.809Z,7.77
2023-03-10T11:41:25.205Z,4.80
2023-03-10T11:44:01.668Z,4.87
2023-03-10T11:47:08.239Z,4.33
2023-03-10T11:49:38.490Z,4.73
2023-03-10T11:52:19.446Z,4.57
2023-03-10T11:54:54.520Z,5.30
2023-03-10T11:57:23.767Z,4.87
2023-03-10T11:59:56.981Z,5.17
2023-03-10T12:02:30.217Z,5.50
2023-03-10T12:05:22.907Z,11.87
2023-03-10T12:07:55.002Z,10.10
2023-03-10T12:10:22.977Z,7.20
2023-03-10T12:12:53.558Z,5.27
2023-03-10T12:15:30.544Z,5.60
2023-03-10T12:17:57.657Z,6.03
2023-03-10T12:20:31.453Z,5.43
2023-03-10T12:23:22.400Z,6.03
2023-03-10T12:25:49.411Z,12.27
2023-03-10T12:28:20.153Z,12.77
2023-03-10T12:30:59.143Z,10.60
2023-03-10T12:33:39.343Z,7.13
2023-03-10T12:36:34.181Z,7.20
2023-03-10T12:39:24.878Z,6.40
2023-03-10T12:41:56.547Z,5.40
2023-03-10T12:44:49.935Z,6.40
2023-03-10T12:47:25.613Z,5.60
2023-03-10T12:50:20.340Z,6.60
2023-03-10T12:53:26.702Z,5.93
2023-03-10T12:56:19.019Z,6.63
2023-03-10T12:59:31.073Z,6.97
2023-03-10T13:01:59.466Z,6.93
2023-03-10T13:04:27.784Z,6.40
2023-03-10T13:07:03.788Z,6.83
2023-03-10T13:09:39.078Z,6.73
2023-03-10T13:12:20.379Z,6.20
2023-03-10T13:14:55.964Z,5.90
2023-03-10T13:17:32.302Z,16.50
2023-03-10T13:20:01.751Z,20.20
2023-03-10T13:22:28.730Z,12.50
2023-03-10T13:25:02.837Z,9.10
2023-03-10T13:27:33.389Z,9.13
2023-03-10T13:30:14.639Z,16.27
2023-03-10T13:32:42.749Z,10.43
2023-03-10T13:35:38.542Z,9.97
2023-03-10T13:38:21.840Z,7.00
2023-03-10T13:40:50.008Z,7.40
2023-03-10T13:43:40.020Z,8.43
2023-03-10T13:46:38.116Z,8.40
2023-03-10T13:49:08.755Z,9.73
2023-03-10T13:51:38.737Z,9.40
2023-03-10T13:54:24.370Z,9.60
2023-03-10T13:56:55.405Z,36.27
2023-03-10T13:59:27.650Z,22.20
2023-03-10T14:01:58.308Z,12.73
2023-03-10T14:04:52.014Z,12.10
2023-03-10T14:07:26.243Z,12.40
2023-03-10T14:10:05.713Z,10.63
2023-03-10T14:12:44.971Z,12.77
2023-03-10T14:15:14.774Z,9.57
2023-03-10T14:17:44.213Z,8.47
2023-03-10T14:20:12.956Z,7.83
2023-03-10T14:22:43.615Z,12.63
2023-03-10T14:25:20.988Z,10.10
2023-03-10T14:27:56.472Z,10.20
2023-03-10T14:30:30.576Z,10.17
2023-03-10T14:32:59.942Z,10.77
2023-03-10T14:35:29.249Z,10.27
2023-03-10T14:37:56.608Z,11.00
2023-03-10T14:40:25.562Z,10.73
2023-03-10T14:42:54.614Z,10.10
2023-03-10T14:45:41.133Z,10.20
2023-03-10T14:48:20.956Z,11.60
2023-03-10T14:50:49.029Z,12.00
2023-03-10T14:53:20.996Z,13.87
2023-03-10T14:55:50.893Z,25.43
2023-03-10T14:58:23.078Z,35.07
2023-03-10T15:00:51.068Z,14.73
2023-03-10T15:03:19.724Z,10.57
2023-03-10T15:05:49.003Z,10.47
2023-03-10T15:08:18.896Z,9.70
2023-03-10T15:10:50.546Z,9.93
2023-03-10T15:13:23.860Z,10.53
2023-03-10T15:15:51.329Z,10.90
2023-03-10T15:18:22.296Z,11.27
2023-03-10T15:20:49.772Z,9.87
2023-03-10T15:23:19.984Z,12.37
2023-03-10T15:25:47.362Z,13.13
2023-03-10T15:28:14.663Z,13.10
2023-03-10T15:30:41.932Z,13.03
2023-03-10T15:33:10.572Z,14.17
2023-03-10T15:35:38.623Z,13.73
2023-03-10T15:38:05.739Z,12.83
2023-03-10T15:40:35.668Z,14.47
2023-03-10T15:43:03.586Z,13.20
2023-03-10T15:45:31.512Z,12.70
2023-03-10T15:48:00.026Z,10.17
2023-03-10T15:50:27.852Z,10.20
2023-03-10T15:52:59.467Z,10.47
2023-03-10T15:55:27.828Z,8.93
2023-03-10T15:57:56.042Z,7.27
2023-03-10T16:00:25.114Z,8.40
2023-03-10T16:02:52.583Z,9.90
2023-03-10T16:05:20.182Z,9.03
2023-03-10T16:07:47.470Z,9.03
2023-03-10T16:10:18.106Z,8.30
2023-03-10T16:12:45.316Z,9.13
2023-03-10T16:15:13.318Z,8.93
2023-03-10T16:17:41.009Z,12.20
2023-03-10T16:20:12.340Z,17.73
2023-03-10T16:22:41.394Z,25.40
2023-03-10T16:25:18.223Z,21.60
2023-03-10T16:27:46.076Z,10.70
2023-03-10T16:30:16.070Z,10.27
2023-03-10T16:32:48.582Z,9.07
2023-03-10T16:35:17.318Z,8.53
2023-03-10T16:37:44.566Z,8.03
2023-03-10T16:40:12.318Z,8.10
2023-03-10T16:42:43.189Z,9.33
2023-03-10T16:45:10.754Z,10.27
2023-03-10T16:47:37.818Z,10.47
2023-03-10T16:50:05.194Z,8.10
2023-03-10T16:52:32.161Z,8.60
2023-03-10T16:55:01.420Z,9.13
2023-03-10T16:57:28.508Z,8.43
2023-03-10T16:59:55.477Z,7.00
2023-03-10T17:02:22.394Z,6.70
2023-03-10T17:04:49.276Z,6.60
2023-03-10T17:07:16.368Z,6.40
2023-03-10T17:09:43.263Z,7.73
2023-03-10T17:12:10.192Z,6.97
2023-03-10T17:14:37.127Z,7.37
2023-03-10T17:17:06.541Z,7.80
2023-03-10T17:19:34.813Z,9.53
2023-03-10T17:22:01.714Z,11.13
2023-03-10T17:24:28.867Z,9.53
2023-03-10T17:26:57.125Z,9.80
2023-03-10T17:29:24.059Z,11.30
2023-03-10T17:31:51.708Z,11.70
2023-03-10T17:34:19.940Z,10.87
2023-03-10T17:36:50.082Z,10.60
2023-03-10T17:39:22.800Z,10.40
2023-03-10T17:41:50.250Z,11.90
2023-03-10T17:44:17.505Z,13.77
2023-03-10T17:46:45.387Z,15.30
2023-03-10T17:49:14.298Z,15.53
2023-03-10T17:51:44.277Z,18.23
2023-03-10T17:54:20.129Z,19.17
2023-03-10T17:56:48.349Z,18.03
2023-03-10T17:59:16.918Z,17.97
2023-03-10T18:01:46.338Z,17.37
2023-03-10T18:04:13.772Z,18.90
2023-03-10T18:06:40.736Z,20.27
2023-03-10T18:09:12.395Z,19.70
2023-03-10T18:11:39.686Z,19.67
2023-03-10T18:14:06.931Z,23.93
2023-03-10T18:16:38.908Z,26.80
2023-03-10T18:19:10.485Z,22.60
2023-03-10T18:21:37.830Z,19.63
2023-03-10T18:24:04.918Z,16.37
2023-03-10T18:26:31.902Z,16.43
2023-03-10T18:28:59.981Z,18.20
2023-03-10T18:31:31.343Z,17.30
2023-03-10T18:33:59.266Z,17.47
2023-03-10T18:36:26.816Z,18.70
2023-03-10T18:38:54.483Z,17.57
2023-03-10T18:41:25.445Z,16.83
2023-03-10T18:43:53.412Z,17.10
2023-03-10T18:46:20.972Z,17.10
2023-03-10T18:48:48.306Z,16.40
2023-03-10T18:51:16.072Z,16.70
2023-03-10T18:53:43.058Z,16.30
2023-03-10T18:56:10.452Z,16.67
2023-03-10T18:58:37.751Z,16.13
2023-03-10T19:01:13.821Z,15.50
2023-03-10T19:03:41.648Z,17.67
2023-03-10T19:06:09.593Z,15.43
2023-03-10T19:08:38.460Z,13.60
2023-03-10T19:11:06.894Z,14.37
2023-03-10T19:13:34.703Z,15.13
2023-03-10T19:16:06.866Z,15.30
2023-03-10T19:18:34.102Z,15.53
2023-03-10T19:21:01.346Z,15.20
2023-03-10T19:23:29.000Z,16.50
2023-03-10T19:25:56.447Z,15.90
2023-03-10T19:28:23.440Z,22.47
2023-03-10T19:30:50.415Z,19.60
2023-03-10T19:33:17.644Z,18.40
2023-03-10T19:35:44.948Z,18.90
2023-03-10T19:38:11.911Z,18.37
2023-03-10T19:40:38.952Z,20.07
2023-03-10T19:43:05.930Z,19.83
2023-03-10T19:45:32.936Z,19.07
2023-03-10T19:48:00.000Z,19.00
2023-03-10T19:50:27.657Z,19.00
2023-03-10T19:52:54.667Z,16.50
2023-03-10T19:55:23.937Z,17.90
2023-03-10T19:57:55.912Z,17.03
2023-03-10T20:00:30.716Z,16.80
2023-03-10T20:02:58.206Z,16.60
2023-03-10T20:05:26.717Z,14.90
2023-03-10T20:07:53.742Z,14.40
2023-03-10T20:10:20.926Z,13.60
2023-03-10T20:12:47.946Z,13.80
2023-03-10T20:15:15.532Z,13.47
2023-03-10T20:17:42.597Z,12.90
2023-03-10T20:20:11.443Z,11.33
2023-03-10T20:22:45.257Z,7.37
2023-03-10T20:25:15.573Z,6.10
2023-03-10T20:27:42.677Z,6.67
2023-03-10T20:30:18.799Z,6.97
2023-03-10T20:32:46.163Z,6.87
2023-03-10T20:35:15.022Z,6.43
2023-03-10T20:37:42.368Z,4.90
2023-03-10T20:40:13.382Z,4.67
2023-03-10T20:42:40.545Z,4.40
2023-03-10T20:45:10.088Z,4.37
2023-03-10T20:47:37.580Z,3.07
2023-03-10T20:50:07.804Z,3.00
2023-03-10T20:52:36.845Z,3.47
2023-03-10T20:55:06.945Z,2.60
2023-03-10T20:57:34.516Z,2.73
2023-03-10T21:00:01.899Z,2.47
2023-03-10T21:02:28.894Z,2.37
2023-03-10T21:04:55.906Z,2.70
2023-03-10T21:07:22.900Z,2.30
2023-03-10T21:09:49.808Z,2.37
2023-03-10T21:12:18.642Z,2.13
2023-03-10T21:14:45.974Z,1.73
2023-03-10T21:17:12.942Z,1.97
2023-03-10T21:19:39.900Z,2.00
2023-03-10T21:22:06.803Z,2.50
2023-03-10T21:24:34.024Z,2.47
2023-03-10T21:27:01.256Z,2.53
2023-03-10T21:29:28.202Z,2.70
2023-03-10T21:31:56.361Z,2.40
2023-03-10T21:34:23.300Z,2.50
2023-03-10T21:36:50.197Z,3.27
2023-03-10T21:39:17.148Z,2.60
2023-03-10T21:41:44.407Z,2.90
2023-03-10T21:44:11.702Z,3.60
2023-03-10T21:46:38.795Z,3.60
2023-03-10T21:49:05.968Z,3.03
2023-03-10T21:51:34.893Z,4.60
2023-03-10T21:54:03.142Z,3.50
2023-03-10T21:56:30.381Z,3.70
2023-03-10T21:58:58.137Z,3.40
2023-03-10T22:01:26.839Z,4.27
2023-03-10T22:03:53.863Z,4.13
2023-03-10T22:06:20.958Z,4.93
2023-03-10T22:08:48.375Z,3.53
2023-03-10T22:11:15.462Z,4.10
2023-03-10T22:13:42.935Z,5.30
2023-03-10T22:16:14.555Z,5.93
2023-03-10T22:18:41.630Z,6.07
2023-03-10T22:21:08.507Z,6.00
2023-03-10T22:23:35.381Z,7.00
2023-03-10T22:26:02.323Z,5.00
2023-03-10T22:28:29.266Z,7.30
2023-03-10T22:30:56.170Z,7.30
2023-03-10T22:33:23.169Z,6.67
2023-03-10T22:35:52.310Z,6.53
2023-03-10T22:38:20.453Z,5.67
2023-03-10T22:40:47.746Z,7.70
2023-03-10T22:43:15.012Z,7.53
2023-03-10T22:45:42.218Z,8.90
2023-03-10T22:48:09.381Z,11.03
2023-03-10T22:50:41.080Z,12.20
2023-03-10T22:53:15.031Z,12.97
2023-03-10T22:55:43.545Z,12.07
2023-03-10T22:58:11.279Z,11.67
2023-03-10T23:00:39.732Z,10.40
2023-03-10T23:03:07.476Z,10.50
2023-03-10T23:05:34.465Z,10.50
2023-03-10T23:08:01.427Z,11.10
2023-03-10T23:10:34.748Z,11.37
2023-03-10T23:13:05.647Z,10.37
2023-03-10T23:15:36.086Z,10.53
2023-03-10T23:18:04.175Z,11.50
2023-03-10T23:20:37.665Z,11.10
2023-03-10T23:23:06.696Z,9.60
2023-03-10T23:25:39.972Z,7.80
2023-03-10T23:28:09.241Z,8.73
2023-03-10T23:30:39.934Z,9.70
2023-03-10T23:33:09.971Z,8.40
2023-03-10T23:35:36.988Z,8.40
2023-03-10T23:38:06.088Z,8.60
2023-03-10T23:40:35.650Z,8.67
2023-03-10T23:43:05.594Z,9.10
2023-03-10T23:45:35.781Z,8.77
2023-03-10T23:48:04.649Z,8.50
2023-03-10T23:50:39.824Z,9.83
2023-03-10T23:53:08.774Z,9.37
2023-03-10T23:55:40.340Z,8.63
2023-03-10T23:58:07.909Z,10.07
